Aérodrome :
LOGIN :

S'inscrire | Disclaimer

   EN    FR    IT 

 










Légende :    VFR   VFR Marginal   IFR   IFR Intensif   IFR Très Intensif
Visi : 
Plafond : 
>= 8 km
>= 3000ft
5 à 8 km
1000 à 3000 ft
1500m à 5 km
500 à 1000 ft
800 à 1500m
200 à 500 ft
< 800m
< 200 ft
Symboles :   Orages  Brouillard  Fortes neiges  Fortes précipitations  Vent > 20 kt
SIGMETs :   Divers  Orages  Givrage  Turbulence  Onde Orograph.  Cendres Volcan.







- Altitude de l'aérodrome : 22 ft
- Code IATA : TUN


DTTA - Tunis Carthage

DERNIER METAR :
  • 192000Z 33004KT 9999 TS BKN030TCU FEW033CB 25/21 Q1018 NOSIG

METARs EXPIRÉS :
  • 191930Z 32006KT 9999 TS BKN030TCU FEW033CB 25/21 Q1018 NOSIG
  • 191900Z 36005KT 9999 BKN030TCU 25/22 Q1018 NOSIG
  • 191830Z 04005KT 010V070 9999 BKN030TCU 26/22 Q1018 NOSIG
  • 191800Z 03006KT 9999 BKN030TCU 26/22 Q1018 NOSIG
  • 191730Z 02007KT 360V060 9999 BKN030TCU 26/22 Q1017 NOSIG

TAF TAF DTTA
Valide du 19 à 18h jusqu'au 20 à 18h UTC


191700Z 1918/2018 36010KT 9999 SCT023TCU
TEMPO 1918/1922 VRB19G37KT 3000 TSRA FEW030CB
BECMG 1922/1924 25006KT
TEMPO 2012/2018 VRB15G27KT 4000 TSRA BKN020 FEW026CB
Pas de NOTAMs connus pour ce terrain.
1 SIGMET publié pour la FIR Tunis (DTTC) :
 
Orages fréquents
DTTC SIGMET 02 VALID 191815/192200 DTTA
DTTC TUNIS FIR FRQ TS OBS N OF N3400 TOP BLW FL400 MOV E NC.=



MET'MAP, la Météo Aéronautique d'un coup d'oeil ! - Copyright ORBIFLY Décembre 2007 - Disclaimer

ORBIFLY MET'MAP TEAM :

Programmation & Développement : Alexandra Zaïnal
Conception & Développement : Baudouin d'Aumeries
Co-Programmation & Développement : Marc-Olivier Méhu
Soutien technique & logistique : Manuel Goepfert

Contact : metmap@orbifly.com




SOURCES & CREDITS :

   NOAA